createdAt,value
2023-01-31T00:09:59.319Z,98075.00
2023-01-31T00:15:21.367Z,98066.00
2023-01-31T00:20:43.143Z,98070.00
2023-01-31T00:26:36.123Z,98082.00
2023-01-31T00:32:20.223Z,98103.00
2023-01-31T00:38:00.630Z,98119.00
2023-01-31T00:43:40.428Z,98102.00
2023-01-31T00:49:13.257Z,98118.00
2023-01-31T00:54:35.589Z,98120.00
2023-01-31T00:59:57.541Z,98119.00
2023-01-31T01:05:40.002Z,98128.00
2023-01-31T01:11:25.966Z,98139.00
2023-01-31T01:23:11.500Z,98139.00
2023-01-31T01:28:43.020Z,98139.00
2023-01-31T01:34:16.832Z,98148.00
2023-01-31T01:39:39.957Z,98166.00
2023-01-31T01:45:04.776Z,98143.00
2023-01-31T01:50:42.739Z,98153.00
2023-01-31T01:56:46.450Z,98150.00
2023-01-31T02:02:30.078Z,98149.00
2023-01-31T02:08:03.871Z,98159.00
2023-01-31T02:13:41.329Z,98181.00
2023-01-31T02:19:52.744Z,98205.00
2023-01-31T02:25:32.711Z,98223.00
2023-01-31T02:31:32.886Z,98208.00
2023-01-31T02:37:41.989Z,98214.00
2023-01-31T02:43:31.970Z,98228.00
2023-01-31T02:49:21.929Z,98238.00
2023-01-31T02:55:15.262Z,98242.00
2023-01-31T03:00:40.125Z,98265.00
2023-01-31T03:06:32.925Z,98265.00
2023-01-31T03:12:27.277Z,98270.00
2023-01-31T03:18:07.751Z,98263.00
2023-01-31T03:23:51.918Z,98275.00
2023-01-31T03:29:23.835Z,98284.00
2023-01-31T03:34:46.813Z,98300.00
2023-01-31T03:40:08.849Z,98306.00
2023-01-31T03:45:41.619Z,98321.00
2023-01-31T03:51:22.795Z,98315.00
2023-01-31T03:57:17.028Z,98317.00
2023-01-31T04:03:03.513Z,98315.00
2023-01-31T04:08:34.946Z,98323.00
2023-01-31T04:14:06.825Z,98312.00
2023-01-31T04:19:36.826Z,98313.00
2023-01-31T04:24:58.149Z,98312.00
2023-01-31T04:30:19.912Z,98311.00
2023-01-31T04:35:41.729Z,98307.00
2023-01-31T04:41:34.524Z,98313.00
2023-01-31T04:53:09.748Z,98307.00
2023-01-31T04:58:34.723Z,98314.00
2023-01-31T05:04:17.579Z,98323.00
2023-01-31T05:10:16.707Z,98316.00
2023-01-31T05:16:07.760Z,98317.00
2023-01-31T05:21:58.742Z,98329.00
2023-01-31T05:28:01.287Z,98326.00
2023-01-31T05:33:45.522Z,98349.00
2023-01-31T05:39:17.131Z,98349.00
2023-01-31T05:44:40.567Z,98350.00
2023-01-31T05:50:03.181Z,98339.00
2023-01-31T05:55:30.193Z,98339.00
2023-01-31T06:00:55.143Z,98338.00
2023-01-31T06:06:38.301Z,98331.00
2023-01-31T06:12:08.843Z,98339.00
2023-01-31T06:17:52.769Z,98358.00
2023-01-31T06:23:28.750Z,98361.00
2023-01-31T06:29:04.641Z,98369.00
2023-01-31T06:34:33.561Z,98369.00
2023-01-31T06:39:55.625Z,98365.00
2023-01-31T06:45:17.103Z,98375.00
2023-01-31T06:50:38.699Z,98365.00
2023-01-31T06:56:25.742Z,98383.00
2023-01-31T07:02:13.066Z,98393.00
2023-01-31T07:07:40.006Z,98377.00
2023-01-31T07:13:11.927Z,98373.00
2023-01-31T07:18:49.423Z,98390.00
2023-01-31T07:24:16.822Z,98389.00
2023-01-31T07:29:39.150Z,98388.00
2023-01-31T07:35:00.645Z,98381.00
2023-01-31T07:40:22.427Z,98378.00
2023-01-31T07:45:46.213Z,98381.00
2023-01-31T07:51:29.881Z,98387.00
2023-01-31T07:56:54.601Z,98386.00
2023-01-31T08:03:12.477Z,98388.00
2023-01-31T08:14:43.682Z,98390.00
2023-01-31T08:20:11.907Z,98399.00
2023-01-31T08:25:34.065Z,98403.00
2023-01-31T08:31:53.455Z,98408.00
2023-01-31T08:37:45.620Z,98407.00
2023-01-31T08:43:23.645Z,98404.00
2023-01-31T08:48:51.557Z,98396.00
2023-01-31T08:54:20.832Z,98396.00
2023-01-31T08:59:42.591Z,98393.00
2023-01-31T09:05:29.066Z,98394.00
2023-01-31T09:11:33.600Z,98379.00
2023-01-31T09:17:13.182Z,98378.00
2023-01-31T09:22:56.602Z,98369.00
2023-01-31T09:28:43.074Z,98370.00
2023-01-31T09:34:18.503Z,98354.00
2023-01-31T09:39:40.771Z,98340.00
2023-01-31T09:45:12.881Z,98340.00
2023-01-31T09:51:09.242Z,98341.00
2023-01-31T09:57:15.812Z,98338.00
2023-01-31T10:03:15.149Z,98334.00
2023-01-31T10:09:03.553Z,98333.00
2023-01-31T10:14:40.284Z,98324.00
2023-01-31T10:20:22.929Z,98317.00
2023-01-31T10:26:25.895Z,98305.00
2023-01-31T10:32:53.953Z,98311.00
2023-01-31T10:38:33.770Z,98297.00
2023-01-31T10:44:32.888Z,98297.00
2023-01-31T10:49:54.585Z,98283.00
2023-01-31T10:55:59.242Z,98279.00
2023-01-31T11:01:20.856Z,98268.00
2023-01-31T11:07:11.653Z,98256.00
2023-01-31T11:12:57.320Z,98253.00
2023-01-31T11:18:49.781Z,98220.00
2023-01-31T11:24:30.907Z,98222.00
2023-01-31T11:29:54.944Z,98225.00
2023-01-31T11:35:16.277Z,98214.00
2023-01-31T11:40:39.642Z,98210.00
2023-01-31T11:46:31.512Z,98182.00
2023-01-31T11:52:48.333Z,98156.00
2023-01-31T11:58:52.186Z,98168.00
2023-01-31T12:04:48.415Z,98169.00
2023-01-31T12:10:33.631Z,98170.00
2023-01-31T12:16:28.366Z,98141.00
2023-01-31T12:22:28.999Z,98153.00
2023-01-31T12:28:08.402Z,98130.00
2023-01-31T12:33:48.714Z,98123.00
2023-01-31T12:39:53.723Z,98104.00
2023-01-31T12:45:30.420Z,98082.00
2023-01-31T12:51:43.506Z,98078.00
2023-01-31T12:57:25.441Z,98075.00
2023-01-31T13:03:49.102Z,98050.00
2023-01-31T13:09:23.929Z,98033.00
2023-01-31T13:14:50.066Z,98035.00
2023-01-31T13:20:11.408Z,98026.00
2023-01-31T13:26:30.344Z,98012.00
2023-01-31T13:32:28.426Z,97994.00
2023-01-31T13:38:11.293Z,97991.00
2023-01-31T13:43:56.630Z,97985.00
2023-01-31T13:49:36.968Z,97966.00
2023-01-31T13:55:19.538Z,97963.00
2023-01-31T14:00:59.419Z,97958.00
2023-01-31T14:06:23.740Z,97940.00
2023-01-31T14:11:48.094Z,97944.00
2023-01-31T14:17:50.503Z,97941.00
2023-01-31T14:24:00.878Z,97941.00
2023-01-31T14:29:33.778Z,97967.00
2023-01-31T14:34:58.460Z,97969.00
2023-01-31T14:40:23.030Z,97955.00
2023-01-31T14:45:57.072Z,97953.00
2023-01-31T14:51:55.536Z,97935.00
2023-01-31T14:57:47.455Z,97969.00
2023-01-31T15:09:24.791Z,97940.00
2023-01-31T15:14:49.391Z,97957.00
2023-01-31T15:20:37.937Z,97962.00
2023-01-31T15:26:29.461Z,97964.00
2023-01-31T15:32:34.148Z,97968.00
2023-01-31T15:38:21.099Z,97957.00
2023-01-31T15:43:45.535Z,97968.00
2023-01-31T15:49:39.953Z,97958.00
2023-01-31T15:55:06.749Z,97959.00
2023-01-31T16:00:33.854Z,97960.00
2023-01-31T16:06:04.912Z,97956.00
2023-01-31T16:11:39.513Z,97966.00
2023-01-31T16:17:21.075Z,97971.00
2023-01-31T16:23:15.187Z,97972.00
2023-01-31T16:29:09.553Z,97976.00
2023-01-31T16:34:41.401Z,97949.00
2023-01-31T16:40:25.275Z,97956.00
2023-01-31T16:46:09.186Z,97960.00
2023-01-31T16:52:03.324Z,97956.00
2023-01-31T16:57:53.359Z,97943.00
2023-01-31T17:09:41.253Z,97959.00
2023-01-31T17:15:17.000Z,97978.00
2023-01-31T17:20:42.726Z,97979.00
2023-01-31T17:26:22.990Z,97970.00
2023-01-31T17:37:57.716Z,97968.00
2023-01-31T17:43:34.988Z,97966.00
2023-01-31T17:49:05.168Z,97958.00
2023-01-31T17:54:34.402Z,97970.00
2023-01-31T17:59:56.096Z,97972.00
2023-01-31T18:05:38.618Z,97967.00
2023-01-31T18:11:29.959Z,97955.00
2023-01-31T18:17:08.800Z,97967.00
2023-01-31T18:22:54.821Z,97957.00
2023-01-31T18:28:38.821Z,97945.00
2023-01-31T18:34:09.282Z,97940.00
2023-01-31T18:39:33.417Z,97940.00
2023-01-31T18:44:54.811Z,97942.00
2023-01-31T18:50:16.450Z,97933.00
2023-01-31T18:55:37.930Z,97940.00
2023-01-31T19:01:19.574Z,97915.00
2023-01-31T19:07:06.902Z,97912.00
2023-01-31T19:12:48.688Z,97926.00
2023-01-31T19:18:22.718Z,97927.00
2023-01-31T19:23:51.224Z,97929.00
2023-01-31T19:29:33.925Z,97919.00
2023-01-31T19:34:55.785Z,97918.00
2023-01-31T19:40:17.349Z,97917.00
2023-01-31T19:45:39.074Z,97929.00
2023-01-31T19:51:35.332Z,97910.00
2023-01-31T19:57:13.687Z,97927.00
2023-01-31T20:03:09.307Z,97924.00
2023-01-31T20:08:48.319Z,97926.00
2023-01-31T20:14:11.660Z,97907.00
2023-01-31T20:19:36.905Z,97909.00
2023-01-31T20:24:58.954Z,97907.00
2023-01-31T20:30:25.975Z,97893.00
2023-01-31T20:35:57.857Z,97917.00
2023-01-31T20:41:38.418Z,97898.00
2023-01-31T20:47:22.777Z,97893.00
2023-01-31T20:53:10.134Z,97889.00
2023-01-31T20:58:55.964Z,97911.00
2023-01-31T21:04:49.865Z,97913.00
2023-01-31T21:10:15.331Z,97922.00
2023-01-31T21:15:36.743Z,97933.00
2023-01-31T21:21:02.567Z,97935.00
2023-01-31T21:26:34.614Z,97950.00
2023-01-31T21:32:13.994Z,97955.00
2023-01-31T21:37:58.085Z,97948.00
2023-01-31T21:43:58.366Z,97950.00
2023-01-31T21:49:29.539Z,97946.00
2023-01-31T21:54:52.074Z,97950.00
2023-01-31T22:00:14.175Z,97950.00
2023-01-31T22:05:46.486Z,97944.00
2023-01-31T22:11:34.597Z,97942.00
2023-01-31T22:17:20.325Z,97940.00
2023-01-31T22:23:02.748Z,97923.00
2023-01-31T22:28:44.192Z,97943.00
2023-01-31T22:34:22.301Z,97938.00
2023-01-31T22:39:49.917Z,97924.00
2023-01-31T22:45:11.464Z,97926.00
2023-01-31T22:50:32.799Z,97928.00
2023-01-31T22:55:54.756Z,97909.00
2023-01-31T23:01:22.095Z,97915.00
2023-01-31T23:06:43.498Z,97909.00
2023-01-31T23:12:05.362Z,97917.00
2023-01-31T23:17:38.806Z,97916.00
2023-01-31T23:23:00.666Z,97933.00
2023-01-31T23:28:22.176Z,97925.00
2023-01-31T23:33:43.730Z,97938.00
2023-01-31T23:39:05.406Z,97916.00
2023-01-31T23:44:26.753Z,97935.00
2023-01-31T23:49:48.152Z,97938.00
2023-01-31T23:55:10.435Z,97921.00
